Time;durP1;ratioP1;P1;durP2;ratioP2;P2;SDS_P1;SDS_P2;PMS_P1;PMS_P2;Temp;Humidity;BMP_temperature;BMP_pressure;BME280_temperature;BME280_humidity;BME280_pressure;Samples;Min_cycle;Max_cycle;Signal;HPM_P1;HPM_P2
2022/03/26 00:05:04;;;;;;;23.00;12.80;;;23.10;44.10;;;;;;215731;1293;24438;-51
2022/03/26 00:10:09;;;;;;;20.70;13.10;;;23.10;44.10;;;;;;216271;1294;25439;-55
2022/03/26 00:15:12;;;;;;;19.40;13.20;;;23.00;44.60;;;;;;216191;1293;24341;-56
2022/03/26 00:20:16;;;;;;;21.80;12.90;;;23.00;44.20;;;;;;215928;1293;23994;-48
2022/03/26 00:25:20;;;;;;;20.10;12.60;;;22.90;44.60;;;;;;216029;1294;23953;-54
2022/03/26 00:30:24;;;;;;;23.50;13.80;;;22.90;44.70;;;;;;215954;1293;22647;-49
2022/03/26 00:35:29;;;;;;;19.80;12.70;;;22.80;44.50;;;;;;216009;1294;25563;-54
2022/03/26 00:40:33;;;;;;;22.90;14.10;;;22.80;44.30;;;;;;216002;1293;26590;-52
2022/03/26 00:45:36;;;;;;;21.90;13.60;;;22.80;44.30;;;;;;216068;1293;24323;-52
2022/03/26 00:50:44;;;;;;;21.70;13.70;;;22.70;44.30;;;;;;216103;1294;22566;-55
2022/03/26 00:55:48;;;;;;;25.80;14.00;;;22.60;44.40;;;;;;215859;1293;23955;-53
2022/03/26 01:00:52;;;;;;;21.70;14.50;;;22.70;44.70;;;;;;215675;1293;24347;-53
2022/03/26 01:06:14;;;;;;;25.60;15.00;;;22.50;44.40;;;;;;215973;1294;24435;-50
2022/03/26 01:11:26;;;;;;;20.50;13.70;;;22.50;44.40;;;;;;215613;1293;24364;-51
2022/03/26 01:16:30;;;;;;;24.20;14.00;;;22.50;44.50;;;;;;215892;1293;25397;-49
2022/03/26 01:21:35;;;;;;;22.10;13.10;;;22.60;45.20;;;;;;215521;1293;25294;-51
2022/03/26 01:26:39;;;;;;;24.50;14.60;;;22.60;44.40;;;;;;216065;1293;22588;-52
2022/03/26 01:31:43;;;;;;;25.00;14.00;;;22.60;44.50;;;;;;215843;1293;22566;-51
2022/03/26 01:36:47;;;;;;;26.40;14.80;;;22.50;44.50;;;;;;215771;1293;25055;-56
2022/03/26 01:41:50;;;;;;;23.00;14.40;;;22.50;44.60;;;;;;215891;1293;25295;-51
2022/03/26 01:46:54;;;;;;;22.50;15.30;;;22.50;44.70;;;;;;215943;1294;22647;-51
2022/03/26 01:52:01;;;;;;;22.90;14.30;;;22.50;45.00;;;;;;216071;1293;22602;-51
2022/03/26 01:57:06;;;;;;;24.90;15.00;;;22.40;44.70;;;;;;216132;1293;23878;-53
2022/03/26 02:02:10;;;;;;;23.90;14.90;;;22.40;44.80;;;;;;216175;1293;22654;-54
2022/03/26 02:07:14;;;;;;;25.60;16.20;;;22.30;44.80;;;;;;216174;1293;25281;-51
2022/03/26 02:12:24;;;;;;;21.20;14.90;;;22.30;44.90;;;;;;215861;1293;22583;-55
2022/03/26 02:17:30;;;;;;;22.80;14.30;;;22.30;44.90;;;;;;216050;1293;22589;-50
2022/03/26 02:22:35;;;;;;;23.10;15.10;;;22.30;44.80;;;;;;216116;1293;23984;-51
2022/03/26 02:27:39;;;;;;;27.00;15.60;;;22.30;45.00;;;;;;215288;1296;22620;-49
2022/03/26 02:32:42;;;;;;;28.00;15.30;;;22.30;44.80;;;;;;215961;1293;24267;-52
2022/03/26 02:37:47;;;;;;;25.00;14.50;;;22.20;45.10;;;;;;216107;1294;22586;-54
2022/03/26 02:42:52;;;;;;;26.80;15.50;;;22.20;45.00;;;;;;215809;1293;22576;-49
2022/03/26 02:47:56;;;;;;;24.30;16.40;;;22.10;45.10;;;;;;215940;1293;25499;-50
2022/03/26 02:53:02;;;;;;;25.10;15.70;;;22.10;44.90;;;;;;215771;1293;25424;-49
2022/03/26 02:58:08;;;;;;;23.20;15.20;;;22.10;45.60;;;;;;216001;1293;26513;-50
2022/03/26 03:03:12;;;;;;;27.30;14.70;;;22.00;45.50;;;;;;215597;1296;22586;-51
2022/03/26 03:08:16;;;;;;;30.00;17.20;;;22.00;45.70;;;;;;215572;1296;22595;-52
2022/03/26 03:13:22;;;;;;;22.80;14.90;;;22.00;45.90;;;;;;215948;1293;23074;-52
2022/03/26 03:18:27;;;;;;;28.10;15.60;;;22.00;46.10;;;;;;215789;1293;22564;-51
2022/03/26 03:23:36;;;;;;;27.30;15.80;;;22.00;46.10;;;;;;215913;1293;24087;-51
2022/03/26 03:28:42;;;;;;;24.80;15.30;;;22.00;46.50;;;;;;215351;1296;22592;-49
2022/03/26 03:33:48;;;;;;;26.00;14.30;;;22.00;46.10;;;;;;215764;1294;24328;-51
2022/03/26 03:38:52;;;;;;;25.70;15.20;;;22.00;46.10;;;;;;215859;1293;24405;-47
2022/03/26 03:43:55;;;;;;;26.70;16.00;;;22.00;46.00;;;;;;215181;1293;24481;-53
2022/03/26 03:49:00;;;;;;;26.20;15.30;;;22.10;45.90;;;;;;216213;1294;25364;-51
2022/03/26 03:54:05;;;;;;;26.00;15.40;;;22.10;45.90;;;;;;215805;1296;25359;-50
2022/03/26 03:59:12;;;;;;;23.20;13.70;;;22.10;44.70;;;;;;215750;1296;22619;-50
2022/03/26 04:04:16;;;;;;;23.30;15.00;;;22.20;45.10;;;;;;215864;1293;23939;-50
2022/03/26 04:09:20;;;;;;;22.30;14.30;;;22.20;45.30;;;;;;215762;1293;24923;-50
2022/03/26 04:14:24;;;;;;;26.40;15.70;;;22.20;44.90;;;;;;216076;1294;22592;-49
2022/03/26 04:19:27;;;;;;;23.60;15.30;;;22.20;44.90;;;;;;216032;1293;23957;-50
2022/03/26 04:24:31;;;;;;;24.20;15.30;;;22.20;45.30;;;;;;215983;1293;22631;-49
2022/03/26 04:29:35;;;;;;;22.80;15.20;;;22.20;45.00;;;;;;215594;1293;22748;-50
2022/03/26 04:34:38;;;;;;;23.30;14.60;;;22.20;44.70;;;;;;215975;1294;25369;-49
2022/03/26 04:39:42;;;;;;;24.90;14.70;;;22.30;44.50;;;;;;216050;1294;22826;-47
2022/03/26 04:44:46;;;;;;;23.30;15.20;;;22.30;44.60;;;;;;215898;1294;25283;-50
2022/03/26 04:49:49;;;;;;;22.20;14.10;;;22.20;44.60;;;;;;215787;1294;223424;-46
2022/03/26 04:54:53;;;;;;;21.90;14.40;;;22.30;44.90;;;;;;216135;1294;22694;-54
2022/03/26 04:59:57;;;;;;;21.40;13.80;;;22.30;44.40;;;;;;216236;1294;24655;-54
2022/03/26 05:05:01;;;;;;;22.10;14.90;;;22.30;44.00;;;;;;216121;1294;22598;-48
2022/03/26 05:10:05;;;;;;;23.10;14.20;;;22.30;44.30;;;;;;216017;1294;22652;-49
2022/03/26 05:15:10;;;;;;;22.20;14.20;;;22.30;44.30;;;;;;216037;1293;22594;-49
2022/03/26 05:20:14;;;;;;;22.40;14.80;;;22.30;44.30;;;;;;216005;1293;25283;-49
2022/03/26 05:25:19;;;;;;;23.50;15.00;;;22.30;44.30;;;;;;216005;1293;22644;-52
2022/03/26 05:30:24;;;;;;;22.30;14.60;;;22.30;44.00;;;;;;215907;1294;24260;-49
2022/03/26 05:35:28;;;;;;;23.90;14.50;;;22.20;44.80;;;;;;215780;1294;22564;-55
2022/03/26 05:40:31;;;;;;;21.40;14.40;;;22.20;44.50;;;;;;216125;1293;23867;-53
2022/03/26 05:45:35;;;;;;;25.40;15.90;;;22.10;44.90;;;;;;216048;1294;22563;-56
2022/03/26 05:50:39;;;;;;;22.10;14.40;;;22.00;44.70;;;;;;216100;1294;23957;-51
2022/03/26 05:55:45;;;;;;;19.20;13.70;;;22.00;44.30;;;;;;216057;1294;25296;-49
2022/03/26 06:00:52;;;;;;;22.40;15.00;;;21.90;44.80;;;;;;216046;1293;22557;-49
2022/03/26 06:05:58;;;;;;;21.60;14.20;;;21.90;45.00;;;;;;215983;1294;26535;-53
2022/03/26 06:11:04;;;;;;;19.40;14.00;;;21.90;45.10;;;;;;216041;1294;24478;-53
2022/03/26 06:16:08;;;;;;;20.10;14.40;;;21.80;45.00;;;;;;216155;1293;22590;-48
2022/03/26 06:21:13;;;;;;;21.70;13.60;;;21.90;45.10;;;;;;215579;1293;24268;-49
2022/03/26 06:26:20;;;;;;;19.00;13.20;;;21.90;45.10;;;;;;215602;1293;22588;-54
2022/03/26 06:31:31;;;;;;;19.70;13.60;;;22.00;44.80;;;;;;215527;1293;22679;-51
2022/03/26 06:36:49;;;;;;;20.30;13.10;;;22.00;45.10;;;;;;216184;1294;25445;-47
2022/03/26 06:41:53;;;;;;;20.50;13.60;;;22.10;45.20;;;;;;216026;1293;22575;-53
2022/03/26 06:47:07;;;;;;;22.10;13.90;;;22.10;44.30;;;;;;216034;1294;25969;-51
2022/03/26 06:52:11;;;;;;;18.50;12.80;;;22.10;44.40;;;;;;216151;1293;22562;-51
2022/03/26 06:57:14;;;;;;;22.20;13.20;;;22.20;43.90;;;;;;216178;1293;25245;-54
2022/03/26 07:02:18;;;;;;;20.60;13.50;;;22.20;43.80;;;;;;216059;1293;25416;-52
2022/03/26 07:07:22;;;;;;;18.60;12.60;;;22.30;44.10;;;;;;215861;1293;22584;-49
2022/03/26 07:12:29;;;;;;;20.50;12.30;;;22.30;44.40;;;;;;215546;1293;23678;-53
2022/03/26 07:17:33;;;;;;;31.30;13.50;;;22.30;44.20;;;;;;215608;1293;25298;-50
2022/03/26 07:22:58;;;;;;;19.20;13.20;;;22.30;44.40;;;;;;215425;1294;24394;-47
2022/03/26 07:28:11;;;;;;;19.40;12.10;;;22.30;44.60;;;;;;215992;1293;24408;-48
2022/03/26 07:33:16;;;;;;;23.80;12.80;;;22.30;44.60;;;;;;215550;1293;22745;-55
2022/03/26 07:38:23;;;;;;;23.50;12.90;;;22.30;44.50;;;;;;216128;1293;22887;-51
2022/03/26 07:43:32;;;;;;;19.80;11.80;;;22.30;44.80;;;;;;216223;1293;24277;-50
2022/03/26 07:48:39;;;;;;;20.30;11.30;;;22.30;45.50;;;;;;216194;1294;25371;-50
2022/03/26 07:53:55;;;;;;;20.60;11.20;;;22.30;45.90;;;;;;215721;1293;22563;-48
2022/03/26 07:59:03;;;;;;;25.70;12.10;;;22.40;45.50;;;;;;216120;1293;25292;-53
2022/03/26 08:04:12;;;;;;;19.90;11.20;;;22.40;45.50;;;;;;216003;1293;22568;-50
2022/03/26 08:09:17;;;;;;;19.80;11.60;;;22.40;45.50;;;;;;215877;1294;25287;-49
2022/03/26 08:14:24;;;;;;;21.70;10.70;;;22.40;45.50;;;;;;215441;1293;25488;-48
2022/03/26 08:19:34;;;;;;;17.50;11.70;;;22.50;45.40;;;;;;215517;1293;24577;-48
2022/03/26 08:24:38;;;;;;;21.40;11.70;;;22.50;45.20;;;;;;215759;1293;25356;-50
2022/03/26 08:29:49;;;;;;;30.30;11.50;;;22.50;45.30;;;;;;215568;1293;23418;-48
2022/03/26 08:34:58;;;;;;;22.00;11.40;;;22.50;45.60;;;;;;215502;1293;25441;-48
2022/03/26 08:40:12;;;;;;;20.90;12.00;;;22.50;45.70;;;;;;215430;1293;24347;-49
2022/03/26 08:45:22;;;;;;;23.20;11.40;;;22.50;45.40;;;;;;215449;1293;23017;-46
2022/03/26 08:50:36;;;;;;;21.60;11.50;;;22.50;45.40;;;;;;215515;1293;25847;-50
2022/03/26 08:56:14;;;;;;;20.10;10.60;;;22.50;45.30;;;;;;215345;1293;23061;-47
2022/03/26 09:01:22;;;;;;;18.40;10.40;;;22.60;45.30;;;;;;215081;1293;25387;-48
2022/03/26 09:06:26;;;;;;;16.60;10.40;;;22.60;45.50;;;;;;215704;1293;24239;-48
2022/03/26 09:11:48;;;;;;;21.70;11.40;;;22.60;45.40;;;;;;215595;1294;22646;-50
2022/03/26 09:16:52;;;;;;;20.20;11.10;;;22.70;45.50;;;;;;215148;1296;22680;-46
2022/03/26 09:21:56;;;;;;;26.20;11.90;;;22.70;45.20;;;;;;215415;1293;24269;-52
2022/03/26 09:27:08;;;;;;;22.40;11.30;;;22.70;45.50;;;;;;215601;1293;22856;-53
2022/03/26 09:32:15;;;;;;;23.80;11.50;;;22.80;45.40;;;;;;215675;1293;25302;-49
2022/03/26 09:37:32;;;;;;;26.50;12.40;;;22.80;45.00;;;;;;215281;1293;23793;-52
2022/03/26 09:42:40;;;;;;;22.70;11.60;;;22.80;44.90;;;;;;216009;1293;24262;-51
2022/03/26 09:47:45;;;;;;;21.70;11.20;;;22.80;45.10;;;;;;215970;1293;22573;-55
2022/03/26 09:52:56;;;;;;;22.30;11.70;;;22.90;45.10;;;;;;215709;1293;25409;-54
2022/03/26 09:58:00;;;;;;;20.60;11.10;;;22.90;45.50;;;;;;215650;1293;24387;-53
2022/03/26 10:03:07;;;;;;;28.10;12.20;;;22.90;45.20;;;;;;215476;1293;22653;-51
2022/03/26 10:08:24;;;;;;;24.60;11.10;;;22.90;45.80;;;;;;215544;1293;25464;-52
2022/03/26 10:13:38;;;;;;;24.10;11.10;;;23.00;47.50;;;;;;215879;1293;22635;-55
2022/03/26 10:18:47;;;;;;;21.20;9.90;;;23.00;47.50;;;;;;216030;1293;22573;-55
2022/03/26 10:23:56;;;;;;;20.10;10.10;;;23.10;47.10;;;;;;216079;1294;24300;-53
2022/03/26 10:29:01;;;;;;;21.70;11.10;;;23.10;46.70;;;;;;215167;1295;24307;-53
2022/03/26 10:34:16;;;;;;;25.10;10.80;;;23.10;46.60;;;;;;215840;1293;22588;-55
2022/03/26 10:39:40;;;;;;;;;;;;;;;;;;;;;
2022/03/26 10:44:48;;;;;;;22.90;9.30;;;23.20;46.20;;;;;;215634;1293;24383;-56
2022/03/26 10:49:56;;;;;;;26.20;9.80;;;23.30;46.30;;;;;;216136;1294;22630;-55
2022/03/26 10:55:01;;;;;;;21.00;9.50;;;23.20;46.60;;;;;;216124;1293;22605;-52
2022/03/26 11:00:05;;;;;;;20.30;9.00;;;23.20;46.80;;;;;;215615;1293;25273;-52
2022/03/26 11:05:12;;;;;;;17.10;9.10;;;23.20;46.90;;;;;;215846;1293;22924;-54
2022/03/26 11:10:17;;;;;;;25.50;9.60;;;23.30;46.80;;;;;;215973;1294;23983;-55
2022/03/26 11:15:31;;;;;;;19.40;9.40;;;23.40;46.90;;;;;;215613;1293;22585;-54
2022/03/26 11:21:04;;;;;;;19.30;10.50;;;23.50;46.40;;;;;;215415;1293;24328;-51
2022/03/26 11:26:30;;;;;;;20.40;7.60;;;23.60;45.20;;;;;;215911;1293;22560;-52
2022/03/26 11:31:46;;;;;;;17.70;6.70;;;23.60;43.80;;;;;;215664;1293;22596;-53
2022/03/26 11:37:11;;;;;;;15.90;6.70;;;23.60;42.70;;;;;;215886;1294;24266;-50
2022/03/26 11:42:24;;;;;;;20.50;7.20;;;23.50;42.50;;;;;;215942;1293;24328;-50
2022/03/26 11:52:52;;;;;;;14.90;6.10;;;23.60;43.10;;;;;;216004;1293;22617;-54
2022/03/26 11:58:24;;;;;;;18.50;6.00;;;23.50;43.60;;;;;;216006;1294;22720;-57
2022/03/26 12:03:55;;;;;;;27.20;6.90;;;23.50;43.90;;;;;;216140;1293;22792;-53
2022/03/26 12:09:13;;;;;;;14.20;6.80;;;23.60;43.80;;;;;;215643;1293;25289;-51
2022/03/26 12:15:07;;;;;;;11.30;5.60;;;23.60;43.70;;;;;;215874;1293;24347;-53
2022/03/26 12:20:35;;;;;;;12.10;6.10;;;23.60;43.70;;;;;;215206;1296;22718;-54
2022/03/26 12:25:50;;;;;;;17.60;6.30;;;23.60;44.10;;;;;;216034;1293;22578;-54
2022/03/26 12:31:04;;;;;;;11.80;5.30;;;23.50;43.80;;;;;;215978;1293;22564;-57
2022/03/26 12:36:11;;;;;;;9.90;5.20;;;23.50;43.70;;;;;;215865;1293;26174;-53
2022/03/26 12:41:20;;;;;;;12.20;6.30;;;23.40;43.30;;;;;;215749;1293;25402;-54
2022/03/26 12:46:32;;;;;;;11.50;5.70;;;23.40;44.10;;;;;;216269;1294;22600;-53
2022/03/26 12:51:37;;;;;;;11.20;6.40;;;23.30;43.80;;;;;;215969;1294;22566;-54
2022/03/26 12:56:46;;;;;;;13.60;5.90;;;23.30;44.10;;;;;;215976;1293;22595;-55
2022/03/26 13:02:09;;;;;;;10.50;5.50;;;23.30;44.50;;;;;;215740;1294;22984;-51
2022/03/26 13:07:21;;;;;;;14.70;6.00;;;23.30;44.70;;;;;;215972;1293;22743;-52
2022/03/26 13:12:26;;;;;;;10.70;5.00;;;23.30;44.90;;;;;;215942;1294;25228;-56
2022/03/26 13:17:31;;;;;;;17.30;6.20;;;23.30;45.30;;;;;;215750;1293;24301;-51
2022/03/26 13:22:35;;;;;;;11.00;5.40;;;23.30;45.30;;;;;;215671;1293;22627;-55
2022/03/26 13:27:39;;;;;;;14.90;6.00;;;23.30;45.20;;;;;;221696;1297;25315;-57
2022/03/26 13:32:43;;;;;;;10.50;5.10;;;23.20;45.70;;;;;;215447;1294;27135;-55
2022/03/26 13:37:47;;;;;;;15.50;5.80;;;23.20;45.30;;;;;;222903;1293;22209;-53
2022/03/26 13:42:53;;;;;;;13.70;5.00;;;23.40;45.40;;;;;;215579;1293;22575;-52
2022/03/26 13:47:57;;;;;;;10.70;5.00;;;23.50;45.20;;;;;;215771;1293;22620;-54
2022/03/26 13:53:17;;;;;;;15.40;5.50;;;23.50;45.00;;;;;;215551;1294;25406;-53
2022/03/26 13:58:23;;;;;;;15.10;5.80;;;23.40;45.80;;;;;;215502;1293;24232;-50
2022/03/26 14:03:27;;;;;;;8.80;4.70;;;23.30;45.60;;;;;;215601;1294;22818;-57
2022/03/26 14:08:32;;;;;;;10.50;4.50;;;23.30;45.70;;;;;;216069;1294;24463;-52
2022/03/26 14:13:37;;;;;;;10.70;4.80;;;23.20;45.50;;;;;;215622;1294;22754;-51
2022/03/26 14:18:44;;;;;;;17.00;5.20;;;23.20;45.70;;;;;;215981;1294;24305;-55
2022/03/26 14:23:51;;;;;;;14.20;5.10;;;23.20;45.60;;;;;;215858;1294;24237;-56
2022/03/26 14:29:45;;;;;;;14.80;4.90;;;23.10;45.70;;;;;;215941;1294;26131;-53
2022/03/26 14:35:20;;;;;;;9.60;4.50;;;23.20;46.10;;;;;;215802;1294;25557;-53
2022/03/26 14:40:50;;;;;;;11.40;4.80;;;23.10;45.60;;;;;;216001;1293;24555;-51
2022/03/26 14:46:11;;;;;;;9.30;4.10;;;23.00;45.60;;;;;;215567;1292;22599;-48
2022/03/26 14:51:22;;;;;;;13.30;4.50;;;23.10;45.80;;;;;;216022;1296;24387;-52
2022/03/26 14:56:28;;;;;;;13.90;4.60;;;23.10;46.60;;;;;;215888;1294;22741;-49
2022/03/26 15:01:32;;;;;;;13.40;4.80;;;23.00;46.70;;;;;;216102;1294;24287;-49
2022/03/26 15:06:37;;;;;;;14.70;4.50;;;23.00;46.70;;;;;;215744;1294;24480;-49
2022/03/26 15:11:41;;;;;;;11.90;4.10;;;23.00;46.80;;;;;;216219;1296;25444;-48
2022/03/26 15:16:46;;;;;;;12.20;4.40;;;23.00;46.50;;;;;;215964;1294;22685;-49
2022/03/26 15:21:51;;;;;;;13.60;5.00;;;23.00;46.90;;;;;;215851;1293;22727;-51
2022/03/26 15:26:57;;;;;;;15.10;4.30;;;23.00;46.70;;;;;;215987;1292;22928;-49
2022/03/26 15:32:08;;;;;;;10.10;4.10;;;22.90;46.30;;;;;;215890;1294;24561;-49
2022/03/26 15:37:13;;;;;;;8.50;4.10;;;22.90;46.50;;;;;;215763;1294;22749;-49
2022/03/26 15:42:18;;;;;;;13.70;3.90;;;22.90;46.30;;;;;;216109;1296;24345;-49
2022/03/26 15:47:22;;;;;;;10.60;4.20;;;22.90;46.60;;;;;;216112;1294;24262;-48
2022/03/26 15:52:32;;;;;;;17.60;7.50;;;22.90;47.00;;;;;;216050;1294;24975;-51
2022/03/26 15:57:37;;;;;;;18.70;7.50;;;22.90;48.10;;;;;;215913;1294;23078;-52
2022/03/26 16:02:42;;;;;;;16.20;6.70;;;22.90;49.70;;;;;;216016;1294;25317;-50
2022/03/26 16:07:46;;;;;;;13.40;6.20;;;22.90;50.00;;;;;;215993;1294;22576;-50
2022/03/26 16:12:56;;;;;;;14.20;6.30;;;22.90;49.70;;;;;;215396;1296;22586;-51
2022/03/26 16:18:26;;;;;;;16.30;6.00;;;22.90;49.90;;;;;;215885;1294;22597;-55
2022/03/26 16:23:32;;;;;;;17.00;6.30;;;22.90;50.50;;;;;;215958;1294;24262;-50
2022/03/26 16:28:36;;;;;;;13.20;5.20;;;22.90;50.00;;;;;;216132;1294;22558;-50
2022/03/26 16:33:54;;;;;;;13.00;5.60;;;22.80;49.60;;;;;;215679;1293;22784;-51
2022/03/26 16:38:59;;;;;;;11.00;4.90;;;22.80;49.60;;;;;;215236;1297;24363;-51
2022/03/26 16:44:05;;;;;;;13.80;5.90;;;22.80;49.30;;;;;;215785;1294;25353;-47
2022/03/26 16:49:08;;;;;;;11.00;5.50;;;22.80;49.60;;;;;;215845;1294;271440;-52
2022/03/26 16:54:12;;;;;;;15.30;5.30;;;22.80;49.70;;;;;;215985;1293;22747;-48
2022/03/26 16:59:17;;;;;;;13.40;5.00;;;22.70;50.00;;;;;;215899;1293;22661;-50
2022/03/26 17:04:20;;;;;;;12.80;5.40;;;22.70;49.70;;;;;;215751;1294;22882;-51
2022/03/26 17:09:24;;;;;;;18.10;8.10;;;22.70;49.60;;;;;;215600;1293;24350;-49
2022/03/26 17:14:28;;;;;;;17.50;7.30;;;22.70;49.60;;;;;;215761;1293;22782;-50
2022/03/26 17:19:34;;;;;;;24.90;7.50;;;22.70;49.60;;;;;;215608;1293;23040;-51
2022/03/26 17:24:47;;;;;;;22.00;7.40;;;22.70;50.00;;;;;;215729;1293;22602;-48
2022/03/26 17:30:12;;;;;;;19.00;7.50;;;22.70;50.00;;;;;;216005;1294;24799;-50
2022/03/26 17:35:20;;;;;;;20.80;7.50;;;22.70;50.10;;;;;;215694;1294;25400;-49
2022/03/26 17:40:26;;;;;;;23.20;7.10;;;22.70;50.40;;;;;;215633;1293;22627;-50
2022/03/26 17:45:31;;;;;;;22.50;6.30;;;22.80;50.00;;;;;;215734;1294;26525;-50
2022/03/26 17:50:39;;;;;;;21.70;6.50;;;22.90;49.00;;;;;;215859;1293;22558;-52
2022/03/26 17:55:46;;;;;;;11.90;5.90;;;23.00;49.40;;;;;;215682;1294;25289;-52
2022/03/26 18:01:08;;;;;;;21.80;6.00;;;23.00;49.20;;;;;;215569;1294;24035;-52
2022/03/26 18:06:45;;;;;;;18.00;5.90;;;23.00;50.60;;;;;;215950;1294;23933;-54
2022/03/26 18:11:56;;;;;;;15.20;5.50;;;23.10;51.60;;;;;;215919;1294;24324;-50
2022/03/26 18:17:17;;;;;;;26.00;6.60;;;23.10;51.50;;;;;;215989;1293;24328;-52
2022/03/26 18:22:24;;;;;;;24.50;6.90;;;23.10;51.90;;;;;;215818;1293;22768;-50
2022/03/26 18:27:43;;;;;;;22.60;6.50;;;23.10;50.80;;;;;;215555;1296;24341;-49
2022/03/26 18:32:55;;;;;;;28.30;6.40;;;23.00;51.60;;;;;;215623;1293;23433;-55
2022/03/26 18:38:04;;;;;;;20.70;6.50;;;23.00;52.50;;;;;;215463;1296;22571;-55
2022/03/26 18:43:23;;;;;;;;;;;;;;;;;;;;;
2022/03/26 18:48:37;;;;;;;19.50;5.30;;;22.90;51.90;;;;;;215634;1293;22662;-54
2022/03/26 18:53:46;;;;;;;19.00;5.60;;;22.90;51.60;;;;;;215743;1293;22736;-54
2022/03/26 18:58:51;;;;;;;16.90;5.70;;;22.80;51.70;;;;;;215849;1294;22595;-57
2022/03/26 19:03:56;;;;;;;14.00;5.30;;;22.80;53.20;;;;;;215550;1293;26345;-51
2022/03/26 19:09:07;;;;;;;22.90;6.30;;;22.90;53.70;;;;;;215958;1293;23089;-56
2022/03/26 19:14:11;;;;;;;19.00;6.10;;;22.90;53.60;;;;;;215432;1296;23973;-55
2022/03/26 19:19:18;;;;;;;14.10;5.10;;;22.90;53.50;;;;;;215683;1296;22617;-54
2022/03/26 19:24:25;;;;;;;13.70;5.30;;;22.80;52.10;;;;;;216051;1294;22868;-52
2022/03/26 19:29:40;;;;;;;18.80;4.90;;;22.90;51.90;;;;;;216073;1293;22795;-55
2022/03/26 19:34:47;;;;;;;10.40;5.00;;;22.90;51.70;;;;;;215949;1294;24498;-54
2022/03/26 19:39:54;;;;;;;18.20;5.30;;;23.00;51.90;;;;;;215974;1294;24337;-52
2022/03/26 19:45:05;;;;;;;14.70;5.60;;;23.10;54.80;;;;;;216060;1294;22726;-52
2022/03/26 19:50:16;;;;;;;18.40;4.70;;;23.20;55.70;;;;;;216104;1294;25293;-50
2022/03/26 19:55:21;;;;;;;21.10;5.20;;;23.30;56.20;;;;;;215878;1293;23088;-52
2022/03/26 20:00:29;;;;;;;14.80;5.00;;;23.40;55.00;;;;;;215953;1293;22571;-54
2022/03/26 20:05:53;;;;;;;13.40;4.80;;;23.50;54.50;;;;;;216101;1293;22648;-52
2022/03/26 20:11:00;;;;;;;10.10;4.40;;;23.60;53.90;;;;;;216071;1293;25753;-52
2022/03/26 20:21:51;;;;;;;8.70;4.20;;;23.60;54.50;;;;;;215580;1293;22761;-56
2022/03/26 20:27:09;;;;;;;11.20;4.80;;;23.60;54.60;;;;;;215813;1293;22563;-52
2022/03/26 20:32:29;;;;;;;12.80;5.90;;;23.60;54.90;;;;;;215956;1293;24154;-52
2022/03/26 20:37:40;;;;;;;8.80;4.10;;;23.60;55.10;;;;;;215265;1293;22742;-53
2022/03/26 20:43:08;;;;;;;14.60;4.80;;;23.60;54.30;;;;;;215661;1294;23293;-53
2022/03/26 20:48:46;;;;;;;12.00;4.20;;;23.60;54.10;;;;;;215136;1294;24513;-53
2022/03/26 20:54:32;;;;;;;8.90;4.10;;;23.50;54.60;;;;;;215643;1294;25382;-50
2022/03/26 20:59:56;;;;;;;9.20;4.10;;;23.50;55.10;;;;;;215841;1293;22611;-54
2022/03/26 21:05:12;;;;;;;14.00;4.30;;;23.40;55.30;;;;;;215010;1296;22582;-54
2022/03/26 21:10:24;;;;;;;10.50;4.40;;;23.30;55.60;;;;;;215572;1296;24358;-53
2022/03/26 21:15:27;;;;;;;10.00;3.80;;;23.30;55.30;;;;;;215868;1293;24482;-54
2022/03/26 21:20:44;;;;;;;12.50;4.60;;;23.20;55.30;;;;;;215750;1293;24372;-54
2022/03/26 21:26:08;;;;;;;9.00;3.90;;;23.20;55.40;;;;;;215965;1293;22686;-51
2022/03/26 21:31:21;;;;;;;14.70;5.00;;;23.20;55.20;;;;;;215634;1294;25287;-55
2022/03/26 21:36:44;;;;;;;11.80;4.40;;;23.10;56.90;;;;;;215591;1293;24297;-55
2022/03/26 21:41:48;;;;;;;;;;;23.10;57.00;;;;;;215469;1293;24321;-55
2022/03/26 21:46:54;;;;;;;15.20;4.60;;;23.10;56.40;;;;;;215655;1293;22565;-54
2022/03/26 21:52:04;;;;;;;7.50;3.40;;;23.20;57.50;;;;;;215675;1294;22623;-53
2022/03/26 21:57:19;;;;;;;8.00;3.80;;;23.20;56.10;;;;;;215901;1293;22643;-57
2022/03/26 22:02:28;;;;;;;10.40;3.90;;;23.20;55.80;;;;;;215914;1293;22793;-57
2022/03/26 22:07:39;;;;;;;8.30;4.00;;;23.30;55.30;;;;;;216093;1294;22583;-55
2022/03/26 22:12:46;;;;;;;11.90;4.00;;;23.30;55.10;;;;;;216141;1293;22589;-55
2022/03/26 22:18:07;;;;;;;8.40;4.00;;;23.40;55.10;;;;;;215753;1293;25298;-56
2022/03/26 22:23:16;;;;;;;6.30;3.60;;;23.40;55.10;;;;;;215748;1293;22708;-56
2022/03/26 22:28:23;;;;;;;14.70;4.90;;;23.50;55.80;;;;;;215320;1293;24118;-54
2022/03/26 22:33:31;;;;;;;8.40;3.60;;;23.60;55.30;;;;;;216339;1293;24818;-60
2022/03/26 22:38:43;;;;;;;10.00;3.50;;;23.60;54.90;;;;;;215362;1293;24462;-58
2022/03/26 22:43:59;;;;;;;6.40;3.70;;;23.80;54.90;;;;;;216029;1292;24374;-59
2022/03/26 22:49:03;;;;;;;8.00;3.70;;;23.60;55.40;;;;;;216021;1294;22742;-57
2022/03/26 22:54:06;;;;;;;6.20;3.80;;;23.50;55.60;;;;;;216197;1294;22566;-60
2022/03/26 22:59:15;;;;;;;8.60;3.80;;;23.50;56.00;;;;;;216125;1294;24571;-53
2022/03/26 23:04:21;;;;;;;11.30;3.90;;;23.50;56.30;;;;;;215992;1294;22575;-59
2022/03/26 23:09:29;;;;;;;9.00;4.20;;;23.40;56.30;;;;;;215913;1293;24460;-58
2022/03/26 23:14:40;;;;;;;8.00;4.30;;;23.40;56.10;;;;;;215964;1293;23010;-54
2022/03/26 23:20:13;;;;;;;5.90;3.70;;;23.40;56.60;;;;;;215568;1293;22817;-56
2022/03/26 23:25:23;;;;;;;6.60;3.50;;;23.40;56.30;;;;;;216057;1294;22677;-55
2022/03/26 23:30:44;;;;;;;8.20;3.50;;;23.30;56.30;;;;;;216019;1293;22629;-56
2022/03/26 23:35:47;;;;;;;8.40;4.20;;;23.40;56.70;;;;;;215278;1293;22755;-56
2022/03/26 23:40:55;;;;;;;8.50;4.10;;;23.30;56.60;;;;;;215855;1294;25349;-54
2022/03/26 23:46:03;;;;;;;8.80;3.70;;;23.30;56.60;;;;;;215759;1293;22614;-58
2022/03/26 23:51:07;;;;;;;9.80;4.20;;;23.30;56.40;;;;;;215590;1296;24484;-56
2022/03/26 23:56:13;;;;;;;11.00;4.00;;;23.20;56.20;;;;;;215512;1296;25626;-54
